Tiempo atmosférico en la estación meteorológica de Morón De La Frontera, Sevilla (87 m.)



Fecha
DESCASC
Temp. máxima en grados centígrados (hora)
DESCASC
Temp. mínima en grados centígrados (hora)
DESCASC
Temp. media en grados centígrados
DESCASC
Racha de viento máxima en m/sg (hora)
DESCASC
Velocidad máxima media en intervalos de 10 minutos(hora)
DESCASC
Precipitaciones diarias en mm
DESCASC
Precipitaciones de 00:00 a 06:00 en mm
DESCASC
Precipitaciones de 06:00 a 12:00 en mm
DESCASC
Precipitaciones de 12:00 a 18:00 en mm
DESCASC
Precipitaciones de 18:00 a 24:00 en mm
DESCASC
21-01-2021 17 (14:00) 10.4 (08:50) 13.7 11.11 (14:00) 6.94 (14:00) 0.6 0 0.5 0.1 0
20-01-2021 14.6 (16:40) 9.6 (00:00) 12.1 15.56 (12:50) 10.28 (12:10) 10.2 0 8.2 1.6 0.4
19-01-2021 16.4 (16:40) 3.9 (03:40) 10.1 6.11 (16:00) 3.61 (16:10) 0 0 0 0 0
18-01-2021 17.3 (16:00) 0.3 (08:20) 8.8 5 (14:50) 2.5 (14:50) 0 0 0 0 0
17-01-2021 17.4 (16:40) 0.6 (00:00) 9 4.17 (06:00) 2.5 (05:20) 0 0 0 0 0
16-01-2021 17 (15:30) 0.5 (00:00) 8.8 9.72 (16:30) 5.83 (16:30) 0 0 0 0 0
15-01-2021 14.8 (16:50) -0.3 (00:00) 7.3 5 (13:10) 3.06 (13:10) 0 0 0 0 0
14-01-2021 13.6 (17:00) -0.9 (08:40) 6.4 3.61 (15:20) 2.5 (00:10) 0 0 0 0 0
13-01-2021 13.8 (16:30) -0.4 (00:00) 6.7 6.11 (12:20) 3.89 (12:20) 0 0 0 0 0
12-01-2021 12.6 (17:00) 0.1 (00:00) 6.4 4.72 (14:10) 3.06 (12:30) 0 0 0 0 0
11-01-2021 11.7 (15:20) 2.2 (00:00) 6.9 5.56 (13:20) 3.61 (12:50) 0.1 0.1 0 0 0
10-01-2021 9.9 (16:50) 3.2 (03:50) 6.5 5.28 (15:20) 3.33 (19:10) 4 0 1.1 0 2.9
09-01-2021 10.6 (15:00) 4.2 (00:00) 7.4 8.89 (04:10) 5.56 (04:10) 0.1 0.1 0 0 0
08-01-2021 15.1 (16:20) 6.8 (00:00) 11 9.72 (10:00) 6.94 (10:00) 40.2 6.3 8.8 2.1 23
07-01-2021 9 (16:10) 6.9 (00:00) 8 7.5 (08:00) 5 (19:30) 26.4 6.5 3.5 2.8 13.6
06-01-2021 14.2 (15:20) 1.2 (00:00) 7.7 7.22 (19:00) 4.72 (18:50) 6.2 0 0 0 6.2
05-01-2021 13.5 (14:00) 4.4 (00:00) 9 5 (18:20) 3.33 (17:30) 0 0 0 0 0
04-01-2021 13.5 (16:20) -0.9 (-00:0) 6.3 4.72 (14:30) 2.5 (18:10) 0 0 0 0 0
03-01-2021 12.6 (15:40) -1.8 (-00:0) 5.4 5 (22:20) 3.33 (22:20) 0 0 0 0 0
02-01-2021 12.1 (16:40) -0.1 (00:00) 6 5.56 (17:30) 3.33 (17:30) 0 0 0 0 0
01-01-2021 12.5 (14:40) 5.2 (00:00) 8.8 8.33 (00:40) 3.89 (01:10) 0.7 0.7 0 0 0
31-12-2020 13.6 (16:40) -0.8 (-00:0) 6.4 6.11 (19:50) 3.61 (21:20) 0 0 0 0 0
30-12-2020 12.2 (16:20) -0.4 (00:00) 5.9 4.44 (15:50) 2.78 (16:00) 0 0 0 0 0
29-12-2020 15.3 (16:40) 2.2 (00:00) 8.8 7.22 (13:30) 4.17 (11:30) 0 0 0 0 0
28-12-2020 15.6 (16:40) 4.8 (00:00) 10.2 11.11 (11:10) 6.39 (11:10) 0 0 0 0 0
27-12-2020 14.3 (15:10) 0 (00:00) 7.2 5.56 (23:00) 3.89 (23:00) 0 0 0 0 0
26-12-2020 13 (14:40) 4.1 (00:00) 8.5 11.39 (01:10) 7.22 (10:40) 0 0 0 0 0

Gráficas

Temp. máximas Temp. mínimas Temp. medias Precipitaciones Rachas de viento máximas Velocidades máximas media en intervalos de 10 minutos

Datos horarios

Fecha y hora oficial Temperatura (ºC) Velocidad del viento (km/h) Dirección del viento Racha (km/h) Dirección de racha Precipitación (mm) Presión (hPa) Tendencia (hPa) Humedad (%)
2021-01-24 23:00:00 11.9 9 Sudoeste 15 Sudoeste 0 -- -- 88
2021-01-24 22:00:00 12.2 8 Sudoeste 14 Sudoeste 0 -- -- 88
2021-01-24 21:00:00 12.7 8 Sudoeste 13 Sudoeste 0 -- -- 87
2021-01-24 20:00:00 13.5 8 Sudoeste 13 Oeste 0 -- -- 81
2021-01-24 19:00:00 14.7 2 Oeste 17 Sudoeste 0 -- -- 75
2021-01-24 18:00:00 16 10 Oeste 20 Oeste 0 -- -- 66
2021-01-24 17:00:00 17.1 13 Oeste 22 Oeste 0 -- -- 56
2021-01-24 16:00:00 17.6 13 Oeste 20 Oeste 0 -- -- 54
2021-01-24 15:00:00 18.3 6 Oeste 17 Oeste 0 -- -- 54
2021-01-24 14:00:00 18.4 4 Oeste 13 Oeste 0 -- -- 56
2021-01-24 13:00:00 17.7 7 Noroeste 17 Noroeste 0 -- -- 60
2021-01-24 12:00:00 16.5 6 Noroeste 15 Oeste 0 -- -- 78
2021-01-24 11:00:00 16.2 3 Oeste 18 Oeste 0 -- -- 94
2021-01-24 10:00:00 15.4 4 Oeste 32 Oeste 0.4 -- -- 94
2021-01-24 09:00:00 15 14 Oeste 37 Oeste 0 -- -- 94
2021-01-24 08:00:00 15 22 Oeste 39 Oeste 0.2 -- -- 93
2021-01-24 07:00:00 15 24 Oeste 37 Oeste 0 -- -- 92
2021-01-24 06:00:00 14.9 22 Oeste 41 Oeste 0 -- -- 92
2021-01-24 05:00:00 14.7 23 Oeste 43 Oeste 0.2 -- -- 92
2021-01-24 04:00:00 15.1 25 Oeste 46 Oeste 0 -- -- 92
2021-01-24 03:00:00 14.9 26 Oeste 47 Sudoeste 0.1 -- -- 92
2021-01-24 02:00:00 15 27 Sudoeste 45 Oeste 0 -- -- 92
2021-01-24 01:00:00 14.8 22 Oeste 33 Oeste 0.3 -- -- 93
2021-01-24 00:00:00 14.6 22 Sudoeste 36 Oeste 0 -- -- 92
2021-01-23 23:00:00 14.4 20 Sudoeste 32 Sudoeste 0 -- -- 92
2021-01-23 22:00:00 13.7 21 Sudoeste 35 Oeste 0 -- -- 93
2021-01-23 21:00:00 13.1 19 Sudoeste 37 Sudoeste 0.3 -- -- 93
2021-01-23 20:00:00 13.2 19 Sudoeste 35 Sudoeste 0.1 -- -- 91
2021-01-23 19:00:00 14.2 20 Oeste 36 Oeste 0 -- -- 73
2021-01-23 18:00:00 14.5 23 Sudoeste 47 Oeste 0 -- -- 77
2021-01-23 17:00:00 15.1 25 Oeste 44 Oeste 0 -- -- 72
2021-01-23 16:00:00 15.6 24 Oeste 45 Oeste 0 -- -- 67
2021-01-23 15:00:00 15.6 24 Oeste 39 Oeste 0 -- -- 70
2021-01-23 14:00:00 14.9 14 Oeste 28 Oeste 0 -- -- 76
2021-01-23 13:00:00 15.3 7 Oeste 29 Oeste 0 -- -- 71
2021-01-23 12:00:00 14.4 16 Oeste 30 Oeste 0 -- -- 79
2021-01-23 11:00:00 12.6 9 Sudoeste 17 Oeste 0 -- -- 91
2021-01-23 10:00:00 11.3 9 Sudoeste 15 Sudoeste 0 -- -- 94
2021-01-23 09:00:00 10.2 10 Sudoeste 17 Sudoeste 0 -- -- 94
2021-01-23 08:00:00 10.3 8 Sudoeste 14 Sudoeste 0 -- -- 94
2021-01-23 07:00:00 10.2 7 Sudoeste 12 Oeste 0 -- -- 94
2021-01-23 06:00:00 9.6 8 Oeste 13 Oeste 0 -- -- 94
2021-01-23 05:00:00 9.6 9 Oeste 14 Oeste 0 -- -- 92
2021-01-23 04:00:00 10.8 6 Oeste 18 Sudoeste 0 -- -- 91
2021-01-23 03:00:00 11.1 10 Oeste 19 Sudoeste 0 -- -- 89
2021-01-23 02:00:00 11.8 11 Oeste 19 Oeste 0 -- -- 88
2021-01-23 01:00:00 12.1 11 Oeste 19 Oeste 0 -- -- 84
2021-01-23 00:00:00 12.1 11 Oeste 19 Oeste 0 -- -- 81
2021-01-22 23:00:00 12.4 4 Oeste 18 Oeste 0 -- -- 77
2021-01-22 22:00:00 12.4 11 Oeste 23 Oeste 0 -- -- 81
2021-01-22 21:00:00 12.8 10 Oeste 23 Oeste 0 -- -- 80
2021-01-22 20:00:00 12.7 14 Oeste 24 Oeste 0 -- -- 78
2021-01-22 19:00:00 13.9 9 Oeste 17 Oeste 0 -- -- 73
2021-01-22 18:00:00 15.4 3 Oeste 17 Oeste 0 -- -- 61
2021-01-22 17:00:00 16.3 9 Oeste 27 Oeste 0 -- -- 59
2021-01-22 16:00:00 16.4 6 Oeste 30 Oeste 0 -- -- 59
2021-01-22 15:00:00 15.7 18 Oeste 37 Oeste 0 -- -- 59
2021-01-22 14:00:00 15.9 7 Oeste 29 Oeste 0 -- -- 56
2021-01-22 13:00:00 16.4 12 Oeste 40 Oeste 0 -- -- 53
2021-01-22 12:00:00 15.9 18 Oeste 40 Oeste 0 -- -- 63
2021-01-22 11:00:00 15.3 18 Oeste 35 Oeste 0 -- -- 69
2021-01-22 10:00:00 14 17 Oeste 29 Oeste 0 -- -- 89
2021-01-22 09:00:00 13.9 15 Sudoeste 28 Oeste 0 -- -- 92
2021-01-22 08:00:00 14.2 17 Oeste 33 Oeste 0 -- -- 92
2021-01-22 07:00:00 14.8 21 Oeste 37 Sudoeste 0.1 -- -- 93
2021-01-22 06:00:00 14.6 14 Oeste 44 Oeste 3 -- -- 92
2021-01-22 05:00:00 15.2 26 Oeste 46 Oeste 0 -- -- 88
2021-01-22 04:00:00 15.1 26 Oeste 48 Sudoeste 1.4 -- -- 92
2021-01-22 03:00:00 14.9 28 Sudoeste 45 Sudoeste 0.6 -- -- 94
2021-01-22 02:00:00 14.6 23 Sudoeste 45 Sudoeste 0 -- -- 92
2021-01-22 01:00:00 14.9 26 Sudoeste 42 Sudoeste 0 -- -- 87
2021-01-22 00:00:00 14.7 22 Sudoeste 36 Sudoeste 0 -- -- 87
2021-01-21 23:00:00 14.4 20 Sudoeste 35 Sudoeste 0 -- -- 90
2021-01-21 22:00:00 14.3 17 Sudoeste 30 Sudoeste 0 -- -- 91
2021-01-21 21:00:00 14.2 14 Sudoeste 25 Sudoeste 0 -- -- 89
2021-01-21 20:00:00 14.2 16 Sudoeste 26 Sudoeste 0 -- -- 88
2021-01-21 19:00:00 14.6 19 Sudoeste 30 Sudoeste 0 -- -- 82
2021-01-21 18:00:00 15.4 19 Sudoeste 35 Oeste 0.1 -- -- 80
2021-01-21 17:00:00 16.1 20 Oeste 37 Oeste 0 -- -- 75
2021-01-21 16:00:00 16.3 20 Oeste 37 Oeste 0 -- -- 74
2021-01-21 15:00:00 16.3 20 Oeste 35 Oeste 0 -- -- 77
2021-01-21 14:00:00 16.7 25 Oeste 40 Oeste 0 -- -- 72
2021-01-21 13:00:00 15.7 15 Sudoeste 25 Sudoeste 0 -- -- 84
2021-01-21 12:00:00 14.1 12 Sudoeste 21 Sudoeste 0.4 -- -- 92
2021-01-21 11:00:00 13.4 11 Sudoeste 20 Sudoeste 0 -- -- 92
2021-01-21 10:00:00 11.9 10 Sudoeste 19 Sudoeste 0.1 -- -- 94
2021-01-21 09:00:00 10.5 10 Sudoeste 16 Sudoeste 0 -- -- 93
2021-01-21 08:00:00 11 10 Sudoeste 17 Sudoeste 0 -- -- 93
2021-01-21 07:00:00 11 9 Sudoeste 15 Sudoeste 0 -- -- 92
2021-01-21 06:00:00 11.3 10 Sudoeste 17 Sudoeste 0 -- -- 91
2021-01-21 05:00:00 11.2 10 Sudoeste 19 Sudoeste 0 -- -- 90
2021-01-21 04:00:00 11.8 12 Sudoeste 19 Sudoeste 0 -- -- 90
2021-01-21 03:00:00 12 11 Sudoeste 18 Sudoeste 0 -- -- 90
2021-01-21 02:00:00 11.5 11 Sudoeste 17 Sudoeste 0 -- -- 90
2021-01-21 01:00:00 11.3 10 Sudoeste 20 Sudoeste 0 -- -- 89
2021-01-21 00:00:00 12 14 Sudoeste 22 Sudoeste 0 -- -- 88
2021-01-20 23:00:00 12.1 11 Sudoeste 21 Sudoeste 0 -- -- 85
2021-01-20 22:00:00 12.5 11 Sudoeste 20 Sudoeste 0 -- -- 86
2021-01-20 21:00:00 13 13 Sudoeste 28 Sudoeste 0 -- -- 85
2021-01-20 20:00:00 13.3 20 Sudoeste 37 Sudoeste 0 -- -- 81
2021-01-20 19:00:00 13.6 19 Sudoeste 31 Sudoeste 0.4 -- -- 90
2021-01-20 18:00:00 13.9 18 Sudoeste 28 Sudoeste 0 -- -- 88
2021-01-20 17:00:00 14.3 18 Sudoeste 30 Sudoeste 0 -- -- 87
2021-01-20 16:00:00 13.9 17 Sudoeste 37 Sur 0.8 -- -- 92
2021-01-20 15:00:00 13.1 24 Sudoeste 42 Sudoeste 0.2 -- -- 88
2021-01-20 14:00:00 13.9 22 Sudoeste 44 Sudoeste 0.6 -- -- 84
2021-01-20 13:00:00 13.2 33 Sudoeste 56 Sudoeste 0 -- -- 88
2021-01-20 12:00:00 12.6 34 Sudoeste 51 Sur 3.5 -- -- 91
2021-01-20 11:00:00 12.6 31 Sudoeste 47 Sudoeste 0.8 -- -- 88
2021-01-20 10:00:00 12.3 26 Sudoeste 42 Sudoeste 3.3 -- -- 88
2021-01-20 09:00:00 12.4 26 Sudoeste 42 Sudoeste 0.6 -- -- 83
2021-01-20 08:00:00 13.2 23 Sudoeste 37 Sudoeste 0 -- -- 74
2021-01-20 07:00:00 13 20 Sudoeste 31 Sudoeste 0 -- -- 76
2021-01-20 06:00:00 12.3 15 Sudoeste 26 Sur 0 -- -- 77
2021-01-20 05:00:00 12.2 14 Sudoeste 23 Sur 0 -- -- 76
2021-01-20 04:00:00 11.9 11 Sudoeste 17 Sur 0 -- -- 77
2021-01-20 03:00:00 11 8 Sur 14 Sur 0 -- -- 81
2021-01-20 02:00:00 10.6 7 Sudoeste 10 Sudoeste 0 -- -- 84
2021-01-20 01:00:00 10.4 6 Sudoeste 11 Sudoeste 0 -- -- 85
2021-01-20 00:00:00 9.6 6 Sudoeste 10 Sudoeste 0 -- -- 88
2021-01-19 23:00:00 8.4 6 Sudoeste 10 Sudoeste 0 -- -- 86
2021-01-19 22:00:00 8.6 3 Sur 9 Sur 0 -- -- 84
2021-01-19 21:00:00 8.8 5 Sur 9 Sur 0 -- -- 80
2021-01-19 20:00:00 11 2 Sudoeste 6 Oeste 0 -- -- 71
2021-01-19 19:00:00 12.4 0 Calma 7 Norte 0 -- -- 64
2021-01-19 18:00:00 14.4 4 Norte 12 Oeste 0 -- -- 57
2021-01-19 17:00:00 16.3 5 Oeste 21 Sur 0 -- -- 51
2021-01-19 16:00:00 16.1 12 Sudoeste 22 Sudoeste 0 -- -- 51
2021-01-19 15:00:00 14.9 2 Noroeste 8 Nordeste 0 -- -- 62
2021-01-19 14:00:00 13.7 4 Norte 9 Nordeste 0 -- -- 72
2021-01-19 13:00:00 11.2 4 Norte 9 Nordeste 0 -- -- 87
2021-01-19 12:00:00 9.8 2 Norte 8 Nordeste 0 -- -- 95
2021-01-19 11:00:00 7.1 6 Este 8 Este 0 -- -- 95
2021-01-19 10:00:00 4.5 4 Nordeste 7 Norte 0 -- -- 95
2021-01-19 09:00:00 4.6 0 Calma 4 Nordeste 0 -- -- 95
2021-01-19 08:00:00 4.3 0 Calma 4 Nordeste 0 -- -- 94
2021-01-19 07:00:00 5.1 3 Sur 9 Sur 0 -- -- 94
2021-01-19 06:00:00 4.4 0 Calma 5 Norte 0 -- -- 94
2021-01-19 05:00:00 5.9 0 Calma 8 Sudeste 0 -- -- 94
2021-01-19 04:00:00 5.3 6 Sur 8 Sur 0 -- -- 94
2021-01-19 03:00:00 4.6 7 Sur 8 Sudeste 0 -- -- 93
2021-01-19 02:00:00 5 6 Sudeste 7 Sudeste 0 -- -- 92
2021-01-19 01:00:00 5.9 4 Sur 6 Sudeste 0 -- -- 92
2021-01-19 00:00:00 5.7 5 Sudeste 6 Sudeste 0 -- -- 91
2021-01-18 23:00:00 6.4 5 Sudeste 8 Sudeste 0 -- -- 90
2021-01-18 22:00:00 7.3 6 Sur 8 Sur 0 -- -- 87
2021-01-18 21:00:00 8.5 4 Sudeste 6 Sudeste 0 -- -- 82
2021-01-18 20:00:00 10.7 0 Calma 4 Oeste 0 -- -- 73
2021-01-18 19:00:00 12.4 0 Calma 5 Noroeste 0 -- -- 67
2021-01-18 18:00:00 15.1 0 Calma 12 Oeste 0 -- -- 61
2021-01-18 17:00:00 15.7 6 Oeste 15 Oeste 0 -- -- 59
2021-01-18 16:00:00 17.1 2 Oeste 14 Oeste 0 -- -- 53
2021-01-18 15:00:00 -- -- -- -- -- -- -- -- --
2021-01-18 14:00:00 -- -- -- -- -- -- -- -- --
2021-01-18 13:00:00 -- -- -- -- -- -- -- -- --
2021-01-18 12:00:00 -- -- -- -- -- -- -- -- --
2021-01-18 11:00:00 -- -- -- -- -- -- -- -- --
2021-01-18 10:00:00 -- -- -- -- -- -- -- -- --
2021-01-18 09:00:00 -- -- -- -- -- -- -- -- --
2021-01-18 08:00:00 -- -- -- -- -- -- -- -- --
2021-01-18 07:00:00 -- -- -- -- -- -- -- -- --
2021-01-18 06:00:00 -- -- -- -- -- -- -- -- --
2021-01-18 05:00:00 -- -- -- -- -- -- -- -- --
2021-01-18 04:00:00 -- -- -- -- -- -- -- -- --
2021-01-18 03:00:00 -- -- -- -- -- -- -- -- --
2021-01-18 02:00:00 -- -- -- -- -- -- -- -- --
2021-01-18 01:00:00 -- -- -- -- -- -- -- -- --
2021-01-18 00:00:00 -- -- -- -- -- -- -- -- --
2021-01-17 23:00:00 -- -- -- -- -- -- -- -- --
2021-01-17 22:00:00 -- -- -- -- -- -- -- -- --
2021-01-17 21:00:00 -- -- -- -- -- -- -- -- --
2021-01-17 20:00:00 -- -- -- -- -- -- -- -- --
2021-01-17 19:00:00 -- -- -- -- -- -- -- -- --
2021-01-17 18:00:00 -- -- -- -- -- -- -- -- --
2021-01-17 17:00:00 -- -- -- -- -- -- -- -- --
2021-01-17 16:00:00 -- -- -- -- -- -- -- -- --
2021-01-17 15:00:00 -- -- -- -- -- -- -- -- --
2021-01-17 14:00:00 -- -- -- -- -- -- -- -- --
2021-01-17 13:00:00 -- -- -- -- -- -- -- -- --
2021-01-17 12:00:00 -- -- -- -- -- -- -- -- --
2021-01-17 11:00:00 -- -- -- -- -- -- -- -- --
2021-01-17 10:00:00 -- -- -- -- -- -- -- -- --
2021-01-17 09:00:00 -- -- -- -- -- -- -- -- --
2021-01-17 08:00:00 -- -- -- -- -- -- -- -- --
2021-01-17 07:00:00 -- -- -- -- -- -- -- -- --
2021-01-17 06:00:00 -- -- -- -- -- -- -- -- --
2021-01-17 05:00:00 -- -- -- -- -- -- -- -- --
2021-01-17 04:00:00 2.4 4 Sudeste 10 Este 0 -- -- 86
2021-01-17 03:00:00 1.5 4 Este 8 Sur 0 -- -- 84
2021-01-17 02:00:00 2.1 2 Este 8 Sudeste 0 -- -- 82
2021-01-17 01:00:00 2.7 3 Sudeste 8 Sudeste 0 -- -- 78
2021-01-17 00:00:00 3.3 5 Sudeste 9 Este 0 -- -- 75
2021-01-16 23:00:00 4.6 0 Calma 9 Sur 0 -- -- 71
2021-01-16 22:00:00 5.8 6 Este 8 Este 0 -- -- 65
2021-01-16 21:00:00 7.4 4 Este 9 Este 0 -- -- 59
2021-01-16 20:00:00 9.3 8 Este 11 Este 0 -- -- 52
2021-01-16 19:00:00 12.1 3 Sudeste 8 Este 0 -- -- 42
2021-01-16 18:00:00 15.1 7 Este 26 Nordeste 0 -- -- 35
2021-01-16 17:00:00 16.6 18 Este 35 Este 0 -- -- 30
2021-01-16 16:00:00 16.8 20 Nordeste 31 Nordeste 0 -- -- 31
2021-01-16 15:00:00 16.6 15 Nordeste 24 Nordeste 0 -- -- 37
2021-01-16 14:00:00 14.3 18 Nordeste 27 Este 0 -- -- 43
2021-01-16 13:00:00 11.7 17 Nordeste 24 Nordeste 0 -- -- 50
2021-01-16 12:00:00 10 14 Este 21 Nordeste 0 -- -- 56
2021-01-16 11:00:00 7.8 11 Este 16 Este 0 -- -- 74
2021-01-16 10:00:00 4 5 Nordeste 9 Nordeste 0 -- -- 93
2021-01-16 09:00:00 1.4 6 Nordeste 9 Este 0 -- -- 93
2021-01-16 08:00:00 0.6 3 Nordeste 5 Nordeste 0 -- -- 93
2021-01-16 07:00:00 0.9 3 Nordeste 7 Este 0 -- -- 92
2021-01-16 06:00:00 1.1 2 Este 6 Sudeste 0 -- -- 92
2021-01-16 05:00:00 1.2 5 Sudeste 7 Sudeste 0 -- -- 92
2021-01-16 04:00:00 1.9 6 Nordeste 9 Nordeste 0 -- -- 91
2021-01-16 03:00:00 3 5 Sur 7 Sur 0 -- -- 91
2021-01-16 02:00:00 3.2 3 Sudeste 12 Sudeste 0 -- -- 91
2021-01-16 01:00:00 3.1 6 Sudeste 8 Sudeste 0 -- -- 90
2021-01-16 00:00:00 3.5 6 Sur 8 Sur 0 -- -- 89
2021-01-15 23:00:00 4.1 6 Sur 9 Sur 0 -- -- 88
2021-01-15 22:00:00 4.5 5 Sudeste 6 Sudeste 0 -- -- 85
2021-01-15 21:00:00 6 4 Sur 5 Sudoeste 0 -- -- 81
2021-01-15 20:00:00 8.2 0 Calma 5 Norte 0 -- -- 72
2021-01-15 19:00:00 11.1 0 Calma 5 Norte 0 -- -- 60
2021-01-15 18:00:00 13.4 4 Norte 10 Nordeste 0 -- -- 51
2021-01-15 17:00:00 14.7 7 Norte 14 Nordeste 0 -- -- 48
2021-01-15 16:00:00 14.2 8 Nordeste 15 Nordeste 0 -- -- 49
2021-01-15 15:00:00 13.2 8 Nordeste 17 Nordeste 0 -- -- 50
2021-01-15 14:00:00 12.4 9 Nordeste 18 Nordeste 0 -- -- 49
2021-01-15 13:00:00 11.1 10 Nordeste 16 Nordeste 0 -- -- 56
2021-01-15 12:00:00 8.2 8 Nordeste 14 Nordeste 0 -- -- 75
2021-01-15 11:00:00 4.8 3 Norte 7 Nordeste 0 -- -- 92
2021-01-15 10:00:00 2.1 0 Calma 8 Norte 0 -- -- 94
2021-01-15 09:00:00 -0.1 2 Norte 5 Este 0 -- -- 94
2021-01-15 08:00:00 0.9 4 Este 8 Nordeste 0 -- -- 94
2021-01-15 07:00:00 0.2 2 Nordeste 5 Este 0 -- -- 93
2021-01-15 06:00:00 0.6 3 Nordeste 5 Sur 0 -- -- 93
2021-01-15 05:00:00 1 0 Calma 5 Este 0 -- -- 93
2021-01-15 04:00:00 1.9 2 Nordeste 7 Este 0 -- -- 92
2021-01-15 03:00:00 2.7 4 Sudeste 8 Sur 0 -- -- 92
2021-01-15 02:00:00 2 6 Sudeste 8 Sudeste 0 -- -- 92
2021-01-15 01:00:00 2.7 7 Sudeste 9 Sudeste 0 -- -- 91
2021-01-15 00:00:00 2.7 6 Sur 8 Sur 0 -- -- 90
2021-01-14 23:00:00 3.8 6 Sur 8 Sudeste 0 -- -- 88
2021-01-14 22:00:00 4.1 4 Sur 6 Sur 0 -- -- 85
2021-01-14 21:00:00 5.2 5 Sur 6 Sur 0 -- -- 81
2021-01-14 20:00:00 7.9 4 Oeste 8 Sudoeste 0 -- -- 72
2021-01-14 19:00:00 9.7 0 Calma 7 Oeste 0 -- -- 63
2021-01-14 18:00:00 11.9 3 Oeste 8 Sudoeste 0 -- -- 54
2021-01-14 17:00:00 13.3 3 Oeste 12 Sudoeste 0 -- -- 51
2021-01-14 16:00:00 13.2 4 Sudoeste 13 Sudoeste 0 -- -- 56
2021-01-14 15:00:00 11.7 6 Sudoeste 12 Sudoeste 0 -- -- 58
2021-01-14 14:00:00 11.9 2 Noroeste 8 Noroeste 0 -- -- 58
2021-01-14 13:00:00 11.1 0 Calma 7 Norte 0 -- -- 59
2021-01-14 12:00:00 9.3 3 Norte 6 Norte 0 -- -- 64
2021-01-14 11:00:00 7.1 0 Calma 5 Sudeste 0 -- -- 77
2021-01-14 10:00:00 3 3 Sudeste 7 Sudeste 0 -- -- 90
2021-01-14 09:00:00 -0.4 4 Sur 6 Sur 0 -- -- 91
2021-01-14 08:00:00 -0.5 2 Sudeste 6 Este 0 -- -- 91
2021-01-14 07:00:00 -0.1 3 Nordeste 4 Nordeste 0 -- -- 91
2021-01-14 06:00:00 0.2 4 Sudeste 6 Sudeste 0 -- -- 90
2021-01-14 05:00:00 1 3 Sudeste 5 Este 0 -- -- 89
2021-01-14 04:00:00 1 2 Sudeste 7 Sur 0 -- -- 88
2021-01-14 03:00:00 1.6 4 Sur 8 Sudoeste 0 -- -- 88
2021-01-14 02:00:00 2.5 4 Sur 9 Sudoeste 0 -- -- 88
2021-01-14 01:00:00 2.8 6 Sudoeste 11 Sur 0 -- -- 88
2021-01-14 00:00:00 3 7 Sur 10 Sur 0 -- -- 88
2021-01-13 23:00:00 2.7 8 Sur 9 Sur 0 -- -- 87
2021-01-13 22:00:00 3.1 5 Sur 8 Sudoeste 0 -- -- 85
2021-01-13 21:00:00 4.2 4 Sudoeste 6 Sudoeste 0 -- -- 80
2021-01-13 20:00:00 6.5 3 Sur 5 Sur 0 -- -- 67
2021-01-13 19:00:00 9.5 0 Calma 5 Nordeste 0 -- -- 51
2021-01-13 18:00:00 12.1 3 Norte 8 Nordeste 0 -- -- 45
2021-01-13 17:00:00 13.6 5 Norte 9 Norte 0 -- -- 41
2021-01-13 16:00:00 13.2 3 Nordeste 14 Nordeste 0 -- -- 45
2021-01-13 15:00:00 12.1 9 Nordeste 18 Este 0 -- -- 45
2021-01-13 14:00:00 10.5 10 Este 20 Este 0 -- -- 50
2021-01-13 13:00:00 9.5 13 Este 22 Nordeste 0 -- -- 56
2021-01-13 12:00:00 7.7 12 Nordeste 17 Nordeste 0 -- -- 67
2021-01-13 11:00:00 4.9 11 Nordeste 16 Nordeste 0 -- -- 80
2021-01-13 10:00:00 2.6 7 Nordeste 13 Nordeste 0 -- -- 88
2021-01-13 09:00:00 0.6 4 Este 11 Este 0 -- -- 91
2021-01-13 08:00:00 0.3 8 Nordeste 12 Nordeste 0 -- -- 90
2021-01-13 07:00:00 0.7 9 Nordeste 12 Nordeste 0 -- -- 89
2021-01-13 06:00:00 1.2 9 Nordeste 14 Nordeste 0 -- -- 89
2021-01-13 05:00:00 1.4 10 Nordeste 14 Nordeste 0 -- -- 90
2021-01-13 04:00:00 0.9 6 Nordeste 10 Este 0 -- -- 90
2021-01-13 03:00:00 1 5 Nordeste 7 Nordeste 0 -- -- 89
2021-01-13 02:00:00 1.6 3 Este 8 Nordeste 0 -- -- 89
2021-01-13 01:00:00 1.8 4 Nordeste 5 Nordeste 0 -- -- 88
2021-01-13 00:00:00 2.4 5 Nordeste 8 Nordeste 0 -- -- 86
2021-01-12 23:00:00 3.4 4 Este 7 Este 0 -- -- 84
2021-01-12 22:00:00 4.6 4 Este 8 Sudeste 0 -- -- 82
2021-01-12 21:00:00 5.1 2 Sudeste 6 Nordeste 0 -- -- 79
2021-01-12 20:00:00 6.9 5 Este 11 Nordeste 0 -- -- 72
2021-01-12 19:00:00 8.9 8 Nordeste 14 Nordeste 0 -- -- 65
2021-01-12 18:00:00 10.7 11 Nordeste 16 Nordeste 0 -- -- 56
2021-01-12 17:00:00 12.6 5 Nordeste 11 Este 0 -- -- 49
2021-01-12 16:00:00 12.2 6 Nordeste 16 Nordeste 0 -- -- 49
2021-01-12 15:00:00 11.7 10 Nordeste 17 Nordeste 0 -- -- 55
2021-01-12 14:00:00 10.6 11 Nordeste 17 Nordeste 0 -- -- 63
2021-01-12 13:00:00 9.3 10 Nordeste 16 Nordeste 0 -- -- 70
2021-01-12 12:00:00 7.6 10 Nordeste 14 Norte 0 -- -- 77
2021-01-12 11:00:00 5.2 8 Nordeste 12 Nordeste 0 -- -- 88
2021-01-12 10:00:00 2.7 6 Nordeste 10 Nordeste 0 -- -- 93
2021-01-12 09:00:00 1 8 Nordeste 12 Nordeste 0 -- -- 93
2021-01-12 08:00:00 0.8 4 Este 8 Este 0 -- -- 93
2021-01-12 07:00:00 0.3 4 Nordeste 7 Este 0 -- -- 92
2021-01-12 06:00:00 0.3 5 Este 6 Este 0 -- -- 92
2021-01-12 05:00:00 0.8 2 Este 5 Nordeste 0 -- -- 92
2021-01-12 04:00:00 0.9 4 Este 7 Este 0 -- -- 92
2021-01-12 03:00:00 1.3 4 Este 7 Este 0 -- -- 92
2021-01-12 02:00:00 2 4 Sudeste 5 Sudeste 0 -- -- 91
2021-01-12 01:00:00 2.3 4 Este 7 Este 0 -- -- 90
2021-01-12 00:00:00 3.7 5 Oeste 7 Oeste 0 -- -- 90
2021-01-11 23:00:00 3.3 5 Sur 8 Este 0 -- -- 88
2021-01-11 22:00:00 4.8 4 Este 8 Este 0 -- -- 87
2021-01-11 21:00:00 5.2 5 Sur 6 Sur 0 -- -- 83
2021-01-11 20:00:00 6.7 0 Calma -- -- 0 -- -- 75
2021-01-11 19:00:00 8.5 0 Calma 8 Nordeste 0 -- -- 66
2021-01-11 18:00:00 10.2 6 Nordeste 13 Norte 0 -- -- 59
2021-01-11 17:00:00 11.3 7 Nordeste 16 Norte 0 -- -- 58
2021-01-11 16:00:00 11.5 9 Norte 18 Nordeste 0 -- -- 58
2021-01-11 15:00:00 11.4 12 Nordeste 17 Este 0 -- -- 60
2021-01-11 14:00:00 10.1 12 Este 20 Este 0 -- -- 63
2021-01-11 13:00:00 9.1 12 Nordeste 18 Nordeste 0 -- -- 66
2021-01-11 12:00:00 7.7 9 Este 16 Este 0 -- -- 71
2021-01-11 11:00:00 5.9 10 Este 16 Este 0 -- -- 79
2021-01-11 10:00:00 4 7 Este 12 Este 0 -- -- 90
2021-01-11 09:00:00 2.4 8 Nordeste 11 Este 0 -- -- 92
2021-01-11 08:00:00 2.5 4 Este 15 Nordeste 0 -- -- 92
2021-01-11 07:00:00 3.4 10 Nordeste 15 Nordeste 0 -- -- 91
2021-01-11 06:00:00 4.2 9 Nordeste 14 Nordeste 0 -- -- 93
2021-01-11 05:00:00 4.4 5 Nordeste 10 Nordeste 0 -- -- 93
2021-01-11 04:00:00 4.2 7 Nordeste 8 Nordeste 0.1 -- -- 92
2021-01-11 03:00:00 4.5 4 Nordeste 6 Nordeste 0 -- -- 92
2021-01-11 02:00:00 4.9 2 Nordeste 10 Norte 0 -- -- 91
2021-01-11 01:00:00 5.3 3 Sur 7 Sur 0 -- -- 90
2021-01-11 00:00:00 6.3 4 Sudoeste 12 Sur 1.1 -- -- 89
2021-01-10 23:00:00 6.7 6 Sudeste 11 Sudeste 1.7 -- -- 88
2021-01-10 22:00:00 6.7 0 Calma 8 Sur 0.1 -- -- 86
2021-01-10 21:00:00 6.7 2 Oeste 11 Sudoeste 0 -- -- 82
2021-01-10 20:00:00 6.7 6 Sudoeste 18 Sur 0 -- -- 79
2021-01-10 19:00:00 8.4 0 Calma 8 Norte 0 -- -- 71
2021-01-10 18:00:00 8.5 0 Calma 8 Este 0 -- -- 65
2021-01-10 17:00:00 9.9 4 Sudeste 13 Nordeste 0 -- -- 59
2021-01-10 16:00:00 9.1 8 Nordeste 19 Nordeste 0 -- -- 63
2021-01-10 15:00:00 9 10 Nordeste 16 Este 0 -- -- 66
2021-01-10 14:00:00 7.8 8 Sudeste 19 Nordeste 0 -- -- 67
2021-01-10 13:00:00 7.2 8 Nordeste 14 Este 0 -- -- 74
2021-01-10 12:00:00 6 9 Este 16 Este 0 -- -- 81
2021-01-10 11:00:00 5.2 9 Este 14 Este 0 -- -- 89
2021-01-10 10:00:00 4.1 7 Este 12 Este 0.1 -- -- 91
2021-01-10 09:00:00 4 7 Este 12 Este 0.7 -- -- 91
2021-01-10 08:00:00 3.9 6 Este 10 Nordeste 0.2 -- -- 91
2021-01-10 07:00:00 3.8 5 Nordeste 6 Nordeste 0.1 -- -- 90
2021-01-10 06:00:00 3.6 2 Este 4 Sudeste 0 -- -- 89
2021-01-10 05:00:00 3.4 0 Calma 8 Sudoeste 0 -- -- 88
2021-01-10 04:00:00 3.4 4 Sudoeste 9 Sudoeste 0 -- -- 88
2021-01-10 03:00:00 4.1 6 Sudoeste 18 Sudoeste 0 -- -- 87
2021-01-10 02:00:00 4.5 9 Sudoeste 16 Sudoeste 0 -- -- 85
2021-01-10 01:00:00 4.8 10 Sudoeste 13 Sudoeste 0 -- -- 88
2021-01-10 00:00:00 5.3 7 Sudoeste 9 Sur 0 -- -- 88
2021-01-09 23:00:00 5.5 3 Oeste 10 Sur 0 -- -- 86
2021-01-09 22:00:00 5.1 4 Sur 10 Sur 0 -- -- 84
2021-01-09 21:00:00 6.3 10 Sudoeste 17 Sur 0 -- -- 83
2021-01-09 20:00:00 7.3 9 Sudoeste 19 Sudoeste 0 -- -- 78
2021-01-09 19:00:00 7.4 12 Sur 18 Sur 0 -- -- 73
2021-01-09 18:00:00 9 7 Sudoeste 19 Oeste 0 -- -- 57
2021-01-09 17:00:00 10.1 13 Sudoeste 27 Oeste 0 -- -- 48
2021-01-09 16:00:00 10 18 Oeste 30 Sudoeste 0 -- -- 45
2021-01-09 15:00:00 10.1 19 Sudoeste 30 Sudoeste 0 -- -- 52
2021-01-09 14:00:00 9.2 12 Oeste 23 Oeste 0 -- -- 63
2021-01-09 13:00:00 8.4 10 Oeste 24 Oeste 0 -- -- 63
2021-01-09 12:00:00 7.8 12 Oeste 21 Oeste 0 -- -- 66
2021-01-09 11:00:00 6.5 13 Sudoeste 22 Sudoeste 0 -- -- 68
2021-01-09 10:00:00 4.6 14 Sudoeste 24 Sudoeste 0 -- -- 77
2021-01-09 09:00:00 4.4 12 Sudoeste 26 Sudoeste 0 -- -- 80
2021-01-09 08:00:00 5.4 17 Oeste 27 Oeste 0 -- -- 76
2021-01-09 07:00:00 5.5 17 Oeste 28 Oeste 0 -- -- 78
2021-01-09 06:00:00 5.7 13 Sudoeste 31 Oeste 0 -- -- 84
2021-01-09 05:00:00 5.5 20 Oeste 32 Sudoeste 0 -- -- 87
2021-01-09 04:00:00 6.2 19 Oeste 31 Oeste 0 -- -- 87
2021-01-09 03:00:00 7 17 Sudoeste 31 Sudoeste 0 -- -- 92
2021-01-09 02:00:00 7.6 12 Sudoeste 20 Oeste 0 -- -- 95
2021-01-09 01:00:00 7.8 10 Sudoeste 23 Oeste 0.1 -- -- 95
2021-01-09 00:00:00 7.5 12 Oeste 24 Oeste 0.1 -- -- 95
2021-01-08 23:00:00 7.9 6 Oeste 16 Oeste 0 -- -- 94
2021-01-08 22:00:00 8.3 0 Calma 12 Noroeste 0.6 -- -- 93
2021-01-08 21:00:00 9.9 3 Noroeste 9 Noroeste 6.1 -- -- 93
2021-01-08 20:00:00 10.2 4 Este 13 Este 11.3 -- -- 92
2021-01-08 19:00:00 10.4 7 Norte 15 Norte 4.9 -- -- 91
2021-01-08 18:00:00 10.9 4 Norte 21 Nordeste 0.4 -- -- 86
2021-01-08 17:00:00 15 15 Sur 26 Sur 0 -- -- 78
2021-01-08 16:00:00 14.7 17 Sur 28 Sur 0 -- -- 78
2021-01-08 15:00:00 10.6 10 Este 22 Este 0 -- -- 91
2021-01-08 14:00:00 9.5 13 Este 25 Este 0.4 -- -- 92
2021-01-08 13:00:00 8.6 13 Este 26 Este 1.3 -- -- 93
2021-01-08 12:00:00 7.8 18 Este 28 Este 0.8 -- -- 94
2021-01-08 11:00:00 7.4 15 Nordeste 30 Nordeste 0.6 -- -- 94
2021-01-08 10:00:00 6.9 25 Nordeste 35 Nordeste 2.8 -- -- 94
2021-01-08 09:00:00 7 18 Nordeste 26 Nordeste 2.2 -- -- 94
2021-01-08 08:00:00 7.2 18 Nordeste 28 Nordeste 1.4 -- -- 93
2021-01-08 07:00:00 7.2 17 Nordeste 26 Nordeste 1 -- -- 92
2021-01-08 06:00:00 7.1 16 Nordeste 25 Nordeste 0.5 -- -- 91
2021-01-08 05:00:00 7.3 15 Nordeste 27 Nordeste 0 -- -- 92
2021-01-08 04:00:00 7.1 17 Nordeste 27 Nordeste 0.2 -- -- 93
2021-01-08 03:00:00 6.9 15 Nordeste 26 Nordeste 0.4 -- -- 93
2021-01-08 02:00:00 6.9 14 Nordeste 25 Este 3.3 -- -- 93
2021-01-08 01:00:00 7 14 Este 28 Nordeste 1.9 -- -- 93
2021-01-08 00:00:00 7.1 17 Este 26 Nordeste 2.8 -- -- 93
2021-01-07 23:00:00 7.1 16 Nordeste 27 Nordeste 4 -- -- 93
2021-01-07 22:00:00 7.3 15 Nordeste 26 Este 3.2 -- -- 93
2021-01-07 21:00:00 7.6 14 Nordeste 26 Nordeste 2.4 -- -- 93
2021-01-07 20:00:00 7.8 15 Nordeste 27 Nordeste 0.7 -- -- 92
2021-01-07 19:00:00 8.3 16 Nordeste 24 Nordeste 0.5 -- -- 91
2021-01-07 18:00:00 8.5 15 Nordeste 22 Nordeste 0 -- -- 91
2021-01-07 17:00:00 9 13 Nordeste 24 Este 0 -- -- 91
2021-01-07 16:00:00 8.9 11 Este 24 Este 0 -- -- 92
2021-01-07 15:00:00 8.6 11 Este 19 Este 0.8 -- -- 94
2021-01-07 14:00:00 8.2 15 Este 24 Nordeste 1.1 -- -- 94
2021-01-07 13:00:00 8 15 Nordeste 24 Nordeste 0.9 -- -- 94
2021-01-07 12:00:00 7.5 15 Nordeste 26 Este 0.7 -- -- 94
2021-01-07 11:00:00 7.5 13 Nordeste 21 Nordeste 0.3 -- -- 94
2021-01-07 10:00:00 7.3 14 Nordeste 22 Nordeste 0.5 -- -- 94
2021-01-07 09:00:00 7.1 14 Este 26 Nordeste 1.1 -- -- 94
2021-01-07 08:00:00 7 17 Nordeste 27 Nordeste 0.5 -- -- 94
2021-01-07 07:00:00 7.2 16 Nordeste 25 Nordeste 0.4 -- -- 94
2021-01-07 06:00:00 7.5 13 Nordeste 23 Este 0.3 -- -- 93
2021-01-07 05:00:00 7.6 14 Nordeste 23 Nordeste 1 -- -- 93
2021-01-07 04:00:00 7.7 14 Nordeste 22 Este 0.5 -- -- 93
2021-01-07 03:00:00 7.9 13 Este 21 Este 1 -- -- 93
2021-01-07 02:00:00 7.9 12 Este 25 Este 1.6 -- -- 93
2021-01-07 01:00:00 8.2 16 Este 26 Este 2.1 -- -- 93
2021-01-07 00:00:00 8.3 13 Este 21 Nordeste 1.8 -- -- 93
2021-01-06 23:00:00 8.4 14 Este 21 Este 1 -- -- 92
2021-01-06 22:00:00 8.8 10 Nordeste 17 Este 1.5 -- -- 91
2021-01-06 21:00:00 9.2 11 Este 21 Este 1.4 -- -- 88
2021-01-06 20:00:00 9.8 12 Este 22 Nordeste 0.4 -- -- 80
2021-01-06 19:00:00 11 14 Este 26 Este 0.1 -- -- 69
2021-01-06 18:00:00 12.2 15 Este 22 Nordeste 0 -- -- 59
2021-01-06 17:00:00 13.6 6 Este 22 Nordeste 0 -- -- 57
2021-01-06 16:00:00 14 13 Nordeste 22 Nordeste 0 -- -- 56
2021-01-06 15:00:00 13.8 10 Nordeste 17 Nordeste 0 -- -- 56
2021-01-06 14:00:00 12.7 10 Nordeste 17 Norte 0 -- -- 64
2021-01-06 13:00:00 11.1 8 Norte 12 Nordeste 0 -- -- 67
2021-01-06 12:00:00 10 8 Nordeste 14 Este 0 -- -- 70
2021-01-06 11:00:00 7.5 10 Este 14 Este 0 -- -- 78
2021-01-06 10:00:00 4.7 6 Nordeste 9 Nordeste 0 -- -- 88
2021-01-06 09:00:00 3.4 5 Este 9 Nordeste 0 -- -- 88
2021-01-06 08:00:00 3 4 Nordeste 9 Este 0 -- -- 89
2021-01-06 07:00:00 2.7 4 Sudeste 6 Sudeste 0 -- -- 88
2021-01-06 06:00:00 1.3 3 Sudeste 6 Este 0 -- -- 85
2021-01-06 05:00:00 3 5 Este 8 Este 0 -- -- 84
2021-01-06 04:00:00 3.3 3 Nordeste 11 Nordeste 0 -- -- 81
2021-01-06 03:00:00 3.8 10 Nordeste 13 Nordeste 0 -- -- 81
2021-01-06 02:00:00 4 7 Nordeste 9 Nordeste 0 -- -- 80
2021-01-06 01:00:00 4.6 8 Nordeste 12 Nordeste 0 -- -- 79
2021-01-06 00:00:00 5.2 9 Nordeste 17 Nordeste 0 -- -- 75
2021-01-05 23:00:00 6.1 11 Nordeste 16 Nordeste 0 -- -- 70
2021-01-05 22:00:00 7.6 8 Nordeste 13 Este 0 -- -- 65
2021-01-05 21:00:00 8.8 8 Este 14 Este 0 -- -- 64
2021-01-05 20:00:00 9.4 8 Nordeste 14 Este 0 -- -- 63
2021-01-05 19:00:00 10.2 10 Nordeste 18 Este 0 -- -- 60
2021-01-05 18:00:00 11.1 10 Nordeste 18 Nordeste 0 -- -- 58
2021-01-05 17:00:00 12 12 Nordeste 17 Nordeste 0 -- -- 54
2021-01-05 16:00:00 12.4 9 Nordeste 15 Nordeste 0 -- -- 53
2021-01-05 15:00:00 12.8 5 Este 13 Nordeste 0 -- -- 51
2021-01-05 14:00:00 12.7 5 Nordeste 15 Este 0 -- -- 56
2021-01-05 13:00:00 12.1 6 Nordeste 13 Nordeste 0 -- -- 62
2021-01-05 12:00:00 11.3 8 Nordeste 12 Nordeste 0 -- -- 68
2021-01-05 11:00:00 8.6 4 Este 8 Este 0 -- -- 83
2021-01-05 10:00:00 6.4 0 Calma 8 Este 0 -- -- 91
2021-01-05 09:00:00 5.1 5 Este 8 Este 0 -- -- 90
2021-01-05 08:00:00 4.6 2 Norte 7 Nordeste 0 -- -- 88
2021-01-05 07:00:00 4.7 4 Nordeste 9 Norte 0 -- -- 87
2021-01-05 06:00:00 5.7 6 Nordeste 10 Nordeste 0 -- -- 83
2021-01-05 05:00:00 6.5 4 Sudeste 6 Sudeste 0 -- -- 81
2021-01-05 04:00:00 7 0 Calma 4 Sudeste 0 -- -- 78
2021-01-05 03:00:00 7.3 0 Calma 4 Sur 0 -- -- 76
2021-01-05 02:00:00 7.3 0 Calma 7 Sudoeste 0 -- -- 77
2021-01-05 01:00:00 6.8 4 Sur 6 Sudoeste 0 -- -- 77
2021-01-05 00:00:00 6.4 4 Sur 8 Sur 0 -- -- 76
2021-01-04 23:00:00 6.2 5 Sudoeste 8 Sur 0 -- -- 78
2021-01-04 22:00:00 4.7 4 Sur 8 Sur 0 -- -- 74
2021-01-04 21:00:00 6.7 5 Sudoeste 12 Sudoeste 0 -- -- 68
2021-01-04 20:00:00 7.2 6 Sudoeste 10 Sudoeste 0 -- -- 63
2021-01-04 19:00:00 9.2 7 Sudoeste 15 Sudoeste 0 -- -- 57
2021-01-04 18:00:00 10.9 7 Sudoeste 14 Oeste 0 -- -- 52
2021-01-04 17:00:00 12.3 5 Oeste 13 Oeste 0 -- -- 49
2021-01-04 16:00:00 12.9 4 Oeste 14 Sudoeste 0 -- -- 49
2021-01-04 15:00:00 12.6 4 Noroeste 17 Sudoeste 0 -- -- 50
2021-01-04 14:00:00 11.5 7 Oeste 16 Oeste 0 -- -- 52
2021-01-04 13:00:00 10.7 5 Oeste 12 Oeste 0 -- -- 56
2021-01-04 12:00:00 9.3 5 Oeste 11 Sudoeste 0 -- -- 63
2021-01-04 11:00:00 6.3 5 Sudoeste 8 Sur 0 -- -- 77
2021-01-04 10:00:00 3.3 3 Sur 4 Sur 0 -- -- 89
2021-01-04 09:00:00 -0.5 4 Sur 6 Sur 0 -- -- 91
2021-01-04 08:00:00 -0.6 6 Sur 7 Sur 0 -- -- 90
2021-01-04 07:00:00 -0.3 6 Sudeste 10 Sur 0 -- -- 90
2021-01-04 06:00:00 -0.1 4 Sur 7 Sur 0 -- -- 89
2021-01-04 05:00:00 0.4 5 Sur 9 Sur 0 -- -- 88
2021-01-04 04:00:00 0.8 6 Sur 9 Sur 0 -- -- 87
2021-01-04 03:00:00 1 8 Sur 9 Sur 0 -- -- 85
2021-01-04 02:00:00 1 6 Sudoeste 9 Sudoeste 0 -- -- 83
2021-01-04 01:00:00 2.5 7 Sudoeste 12 Sudoeste 0 -- -- 81
2021-01-04 00:00:00 2.9 7 Sudoeste 15 Sudoeste 0 -- -- 78
2021-01-03 23:00:00 5 8 Sudoeste 18 Sudoeste 0 -- -- 75
2021-01-03 22:00:00 3.3 6 Sudoeste 13 Sudoeste 0 -- -- 74
2021-01-03 21:00:00 5.8 10 Sudoeste 16 Sudoeste 0 -- -- 67
2021-01-03 20:00:00 6.2 9 Sudoeste 14 Sudoeste 0 -- -- 60
2021-01-03 19:00:00 7.4 7 Sudoeste 12 Sudoeste 0 -- -- 49
2021-01-03 18:00:00 10.1 7 Oeste 13 Sudoeste 0 -- -- 42
2021-01-03 17:00:00 11.6 8 Sudoeste 14 Oeste 0 -- -- 38
2021-01-03 16:00:00 12.1 5 Oeste 15 Oeste 0 -- -- 38
2021-01-03 15:00:00 11.3 6 Oeste 15 Oeste 0 -- -- 42
2021-01-03 14:00:00 11.1 2 Oeste 10 Norte 0 -- -- 45
2021-01-03 13:00:00 9.7 0 Calma 6 Nordeste 0 -- -- 51
2021-01-03 12:00:00 9 0 Calma 8 Oeste 0 -- -- 59
2021-01-03 11:00:00 6.2 4 Sur 8 Sur 0 -- -- 77
2021-01-03 10:00:00 1.9 5 Sudeste 9 Sur 0 -- -- 85
2021-01-03 09:00:00 -1.5 7 Sur 9 Sur 0 -- -- 90
2021-01-03 08:00:00 -1.3 7 Sur 9 Sudeste 0 -- -- 89
2021-01-03 07:00:00 -1.7 6 Sur 7 Sudeste 0 -- -- 89
2021-01-03 06:00:00 -0.7 4 Sudoeste 8 Sudoeste 0 -- -- 89
2021-01-03 05:00:00 -0.9 7 Sur 10 Sudeste 0 -- -- 89
2021-01-03 04:00:00 -0.8 7 Sudeste 9 Sur 0 -- -- 88
2021-01-03 03:00:00 -0.5 6 Sur 8 Sudeste 0 -- -- 88
2021-01-03 02:00:00 0 6 Sur 10 Sudeste 0 -- -- 87
2021-01-03 01:00:00 0.8 4 Sur 9 Sudeste 0 -- -- 86
2021-01-03 00:00:00 1.4 5 Sur 8 Sur 0 -- -- 84
2021-01-02 23:00:00 2.4 5 Sur 7 Sur 0 -- -- 81
2021-01-02 22:00:00 2.9 6 Sudeste 9 Sur 0 -- -- 79
2021-01-02 21:00:00 4.6 2 Este 11 Nordeste 0 -- -- 74
2021-01-02 20:00:00 6.5 6 Sudoeste 13 Sudoeste 0 -- -- 67
2021-01-02 19:00:00 7.8 6 Sudoeste 11 Sudoeste 0 -- -- 59
2021-01-02 18:00:00 9.7 6 Sudoeste 20 Oeste 0 -- -- 51
2021-01-02 17:00:00 11.2 10 Oeste 17 Sudoeste 0 -- -- 45
2021-01-02 16:00:00 11.6 4 Oeste 13 Oeste 0 -- -- 45
2021-01-02 15:00:00 11.5 3 Noroeste 13 Noroeste 0 -- -- 45
2021-01-02 14:00:00 10 10 Norte 18 Norte 0 -- -- 49